sensor_id;sensor_type;location;lat;lon;timestamp;P1;durP1;ratioP1;P2;durP2;ratioP2
22298;SDS011;11317;51.072;17.036;2022-12-17T00:02:23;80.35;;;33.25;;
22298;SDS011;11317;51.072;17.036;2022-12-17T00:05:08;83.85;;;33.08;;
22298;SDS011;11317;51.072;17.036;2022-12-17T00:07:56;75.43;;;28.27;;
22298;SDS011;11317;51.072;17.036;2022-12-17T00:10:42;85.63;;;31.02;;
22298;SDS011;11317;51.072;17.036;2022-12-17T00:13:26;78.35;;;29.48;;
22298;SDS011;11317;51.072;17.036;2022-12-17T00:16:11;84.03;;;32.47;;
22298;SDS011;11317;51.072;17.036;2022-12-17T00:18:56;85.03;;;32.50;;
22298;SDS011;11317;51.072;17.036;2022-12-17T00:21:40;75.32;;;30.08;;
22298;SDS011;11317;51.072;17.036;2022-12-17T00:24:25;87.47;;;32.15;;
22298;SDS011;11317;51.072;17.036;2022-12-17T00:27:10;83.65;;;30.50;;
22298;SDS011;11317;51.072;17.036;2022-12-17T00:29:54;78.32;;;32.28;;
22298;SDS011;11317;51.072;17.036;2022-12-17T00:32:39;93.38;;;32.97;;
22298;SDS011;11317;51.072;17.036;2022-12-17T00:35:23;73.50;;;31.02;;
22298;SDS011;11317;51.072;17.036;2022-12-17T00:38:12;83.68;;;29.77;;
22298;SDS011;11317;51.072;17.036;2022-12-17T00:41:01;84.73;;;32.27;;
22298;SDS011;11317;51.072;17.036;2022-12-17T00:43:46;88.82;;;32.13;;
22298;SDS011;11317;51.072;17.036;2022-12-17T00:46:30;89.20;;;33.70;;
22298;SDS011;11317;51.072;17.036;2022-12-17T00:49:15;79.43;;;31.77;;
22298;SDS011;11317;51.072;17.036;2022-12-17T00:52:02;88.75;;;31.30;;
22298;SDS011;11317;51.072;17.036;2022-12-17T00:54:47;91.28;;;34.00;;
22298;SDS011;11317;51.072;17.036;2022-12-17T00:57:31;82.00;;;31.25;;
22298;SDS011;11317;51.072;17.036;2022-12-17T01:00:16;75.78;;;30.05;;
22298;SDS011;11317;51.072;17.036;2022-12-17T01:03:04;83.43;;;33.15;;
22298;SDS011;11317;51.072;17.036;2022-12-17T01:05:55;87.18;;;33.17;;
22298;SDS011;11317;51.072;17.036;2022-12-17T01:08:44;74.90;;;29.70;;
22298;SDS011;11317;51.072;17.036;2022-12-17T01:11:28;78.82;;;32.25;;
22298;SDS011;11317;51.072;17.036;2022-12-17T01:17:04;81.63;;;31.30;;
22298;SDS011;11317;51.072;17.036;2022-12-17T01:19:49;76.40;;;30.13;;
22298;SDS011;11317;51.072;17.036;2022-12-17T01:22:53;88.05;;;30.10;;
22298;SDS011;11317;51.072;17.036;2022-12-17T01:25:38;80.93;;;34.65;;
22298;SDS011;11317;51.072;17.036;2022-12-17T01:28:23;85.95;;;31.73;;
22298;SDS011;11317;51.072;17.036;2022-12-17T01:31:09;84.53;;;31.35;;
22298;SDS011;11317;51.072;17.036;2022-12-17T01:34:04;89.80;;;31.35;;
22298;SDS011;11317;51.072;17.036;2022-12-17T01:36:48;74.18;;;29.95;;
22298;SDS011;11317;51.072;17.036;2022-12-17T01:42:17;75.10;;;31.02;;
22298;SDS011;11317;51.072;17.036;2022-12-17T01:45:02;93.43;;;35.45;;
22298;SDS011;11317;51.072;17.036;2022-12-17T01:47:49;78.68;;;34.53;;
22298;SDS011;11317;51.072;17.036;2022-12-17T01:50:48;89.97;;;32.78;;
22298;SDS011;11317;51.072;17.036;2022-12-17T01:53:37;95.68;;;35.72;;
22298;SDS011;11317;51.072;17.036;2022-12-17T01:56:26;84.28;;;34.42;;
22298;SDS011;11317;51.072;17.036;2022-12-17T01:59:11;79.75;;;34.22;;
22298;SDS011;11317;51.072;17.036;2022-12-17T02:01:57;82.90;;;30.48;;
22298;SDS011;11317;51.072;17.036;2022-12-17T02:04:41;95.53;;;34.30;;
22298;SDS011;11317;51.072;17.036;2022-12-17T02:10:56;92.28;;;36.05;;
22298;SDS011;11317;51.072;17.036;2022-12-17T02:14:32;79.80;;;30.52;;
22298;SDS011;11317;51.072;17.036;2022-12-17T02:16:59;87.97;;;33.15;;
22298;SDS011;11317;51.072;17.036;2022-12-17T02:22:46;87.30;;;34.42;;
22298;SDS011;11317;51.072;17.036;2022-12-17T02:25:58;89.22;;;33.13;;
22298;SDS011;11317;51.072;17.036;2022-12-17T02:28:47;93.68;;;33.42;;
22298;SDS011;11317;51.072;17.036;2022-12-17T02:31:34;94.03;;;35.25;;
22298;SDS011;11317;51.072;17.036;2022-12-17T02:34:20;88.13;;;35.17;;
22298;SDS011;11317;51.072;17.036;2022-12-17T02:39:48;93.45;;;32.13;;
22298;SDS011;11317;51.072;17.036;2022-12-17T02:42:32;82.78;;;30.55;;
22298;SDS011;11317;51.072;17.036;2022-12-17T02:45:18;87.88;;;35.50;;
22298;SDS011;11317;51.072;17.036;2022-12-17T02:48:03;104.60;;;35.92;;
22298;SDS011;11317;51.072;17.036;2022-12-17T02:50:50;95.50;;;32.45;;
22298;SDS011;11317;51.072;17.036;2022-12-17T02:53:40;80.90;;;34.40;;
22298;SDS011;11317;51.072;17.036;2022-12-17T02:59:13;90.70;;;32.22;;
22298;SDS011;11317;51.072;17.036;2022-12-17T03:01:58;87.63;;;32.95;;
22298;SDS011;11317;51.072;17.036;2022-12-17T03:04:42;90.80;;;33.15;;
22298;SDS011;11317;51.072;17.036;2022-12-17T03:07:27;78.75;;;30.48;;
22298;SDS011;11317;51.072;17.036;2022-12-17T03:10:11;96.38;;;33.42;;
22298;SDS011;11317;51.072;17.036;2022-12-17T03:12:55;96.50;;;33.05;;
22298;SDS011;11317;51.072;17.036;2022-12-17T03:15:40;97.95;;;35.88;;
22298;SDS011;11317;51.072;17.036;2022-12-17T03:18:24;94.28;;;33.10;;
22298;SDS011;11317;51.072;17.036;2022-12-17T03:21:08;90.85;;;33.55;;
22298;SDS011;11317;51.072;17.036;2022-12-17T03:23:53;92.20;;;33.92;;
22298;SDS011;11317;51.072;17.036;2022-12-17T03:26:37;98.40;;;33.83;;
22298;SDS011;11317;51.072;17.036;2022-12-17T03:29:22;98.35;;;34.63;;
22298;SDS011;11317;51.072;17.036;2022-12-17T03:34:50;67.63;;;22.33;;
22298;SDS011;11317;51.072;17.036;2022-12-17T03:37:35;89.22;;;32.00;;
22298;SDS011;11317;51.072;17.036;2022-12-17T03:43:07;87.05;;;29.13;;
22298;SDS011;11317;51.072;17.036;2022-12-17T03:45:52;84.75;;;32.53;;
22298;SDS011;11317;51.072;17.036;2022-12-17T03:48:37;82.13;;;35.00;;
22298;SDS011;11317;51.072;17.036;2022-12-17T03:51:21;87.95;;;30.70;;
22298;SDS011;11317;51.072;17.036;2022-12-17T03:54:06;92.65;;;33.42;;
22298;SDS011;11317;51.072;17.036;2022-12-17T03:56:50;84.10;;;30.92;;
22298;SDS011;11317;51.072;17.036;2022-12-17T03:59:35;75.97;;;30.77;;
22298;SDS011;11317;51.072;17.036;2022-12-17T04:02:19;88.05;;;34.00;;
22298;SDS011;11317;51.072;17.036;2022-12-17T04:05:04;80.90;;;29.23;;
22298;SDS011;11317;51.072;17.036;2022-12-17T04:07:49;95.50;;;31.27;;
22298;SDS011;11317;51.072;17.036;2022-12-17T04:10:34;89.95;;;34.70;;
22298;SDS011;11317;51.072;17.036;2022-12-17T04:13:18;77.68;;;31.33;;
22298;SDS011;11317;51.072;17.036;2022-12-17T04:16:02;71.35;;;31.10;;
22298;SDS011;11317;51.072;17.036;2022-12-17T04:18:46;82.47;;;31.10;;
22298;SDS011;11317;51.072;17.036;2022-12-17T04:21:31;83.75;;;29.88;;
22298;SDS011;11317;51.072;17.036;2022-12-17T04:24:15;78.57;;;29.70;;
22298;SDS011;11317;51.072;17.036;2022-12-17T04:27:00;83.97;;;30.75;;
22298;SDS011;11317;51.072;17.036;2022-12-17T04:29:44;82.88;;;29.13;;
22298;SDS011;11317;51.072;17.036;2022-12-17T04:35:12;77.82;;;29.85;;
22298;SDS011;11317;51.072;17.036;2022-12-17T04:37:57;90.68;;;31.92;;
22298;SDS011;11317;51.072;17.036;2022-12-17T04:40:41;92.57;;;29.75;;
22298;SDS011;11317;51.072;17.036;2022-12-17T04:43:26;89.32;;;29.50;;
22298;SDS011;11317;51.072;17.036;2022-12-17T04:46:10;86.05;;;28.83;;
22298;SDS011;11317;51.072;17.036;2022-12-17T04:48:55;76.05;;;27.48;;
22298;SDS011;11317;51.072;17.036;2022-12-17T04:51:39;77.03;;;30.80;;
22298;SDS011;11317;51.072;17.036;2022-12-17T04:54:24;88.03;;;31.23;;
22298;SDS011;11317;51.072;17.036;2022-12-17T04:57:08;90.68;;;31.48;;
22298;SDS011;11317;51.072;17.036;2022-12-17T04:59:53;82.95;;;30.23;;
22298;SDS011;11317;51.072;17.036;2022-12-17T05:02:37;86.55;;;29.52;;
22298;SDS011;11317;51.072;17.036;2022-12-17T05:05:22;87.95;;;31.40;;
22298;SDS011;11317;51.072;17.036;2022-12-17T05:08:23;67.43;;;28.08;;
22298;SDS011;11317;51.072;17.036;2022-12-17T05:11:08;90.55;;;30.60;;
22298;SDS011;11317;51.072;17.036;2022-12-17T05:13:52;86.75;;;30.13;;
22298;SDS011;11317;51.072;17.036;2022-12-17T05:16:37;83.90;;;30.52;;
22298;SDS011;11317;51.072;17.036;2022-12-17T05:19:21;80.70;;;28.85;;
22298;SDS011;11317;51.072;17.036;2022-12-17T05:22:06;80.25;;;28.50;;
22298;SDS011;11317;51.072;17.036;2022-12-17T05:24:50;75.22;;;28.92;;
22298;SDS011;11317;51.072;17.036;2022-12-17T05:27:35;67.10;;;27.20;;
22298;SDS011;11317;51.072;17.036;2022-12-17T05:30:19;80.68;;;27.88;;
22298;SDS011;11317;51.072;17.036;2022-12-17T05:35:47;66.65;;;28.05;;
22298;SDS011;11317;51.072;17.036;2022-12-17T05:38:31;66.50;;;24.45;;
22298;SDS011;11317;51.072;17.036;2022-12-17T05:41:16;68.25;;;26.00;;
22298;SDS011;11317;51.072;17.036;2022-12-17T05:44:01;71.43;;;25.58;;
22298;SDS011;11317;51.072;17.036;2022-12-17T05:46:45;86.57;;;30.33;;
22298;SDS011;11317;51.072;17.036;2022-12-17T05:49:30;71.15;;;26.77;;
22298;SDS011;11317;51.072;17.036;2022-12-17T05:52:14;79.03;;;27.50;;
22298;SDS011;11317;51.072;17.036;2022-12-17T05:57:42;68.55;;;25.73;;
22298;SDS011;11317;51.072;17.036;2022-12-17T06:00:27;68.80;;;26.23;;
22298;SDS011;11317;51.072;17.036;2022-12-17T06:05:55;77.70;;;26.13;;
22298;SDS011;11317;51.072;17.036;2022-12-17T06:08:40;80.63;;;29.40;;
22298;SDS011;11317;51.072;17.036;2022-12-17T06:11:25;77.53;;;30.73;;
22298;SDS011;11317;51.072;17.036;2022-12-17T06:14:09;73.85;;;29.17;;
22298;SDS011;11317;51.072;17.036;2022-12-17T06:16:54;76.18;;;25.80;;
22298;SDS011;11317;51.072;17.036;2022-12-17T06:19:39;73.45;;;27.48;;
22298;SDS011;11317;51.072;17.036;2022-12-17T06:22:23;76.90;;;27.55;;
22298;SDS011;11317;51.072;17.036;2022-12-17T06:25:07;72.25;;;27.27;;
22298;SDS011;11317;51.072;17.036;2022-12-17T06:27:59;75.43;;;25.65;;
22298;SDS011;11317;51.072;17.036;2022-12-17T06:30:51;76.80;;;28.75;;
22298;SDS011;11317;51.072;17.036;2022-12-17T06:33:37;80.43;;;26.55;;
22298;SDS011;11317;51.072;17.036;2022-12-17T06:36:21;77.03;;;24.65;;
22298;SDS011;11317;51.072;17.036;2022-12-17T06:39:06;68.63;;;25.02;;
22298;SDS011;11317;51.072;17.036;2022-12-17T06:41:51;66.50;;;24.33;;
22298;SDS011;11317;51.072;17.036;2022-12-17T06:44:35;73.68;;;24.52;;
22298;SDS011;11317;51.072;17.036;2022-12-17T06:50:04;63.95;;;24.60;;
22298;SDS011;11317;51.072;17.036;2022-12-17T06:53:02;70.20;;;26.15;;
22298;SDS011;11317;51.072;17.036;2022-12-17T06:55:48;60.05;;;24.88;;
22298;SDS011;11317;51.072;17.036;2022-12-17T06:58:32;67.95;;;25.58;;
22298;SDS011;11317;51.072;17.036;2022-12-17T07:01:16;66.60;;;24.75;;
22298;SDS011;11317;51.072;17.036;2022-12-17T07:04:01;73.20;;;23.70;;
22298;SDS011;11317;51.072;17.036;2022-12-17T07:06:46;69.07;;;24.50;;
22298;SDS011;11317;51.072;17.036;2022-12-17T07:09:38;71.63;;;26.58;;
22298;SDS011;11317;51.072;17.036;2022-12-17T07:12:23;66.80;;;22.25;;
22298;SDS011;11317;51.072;17.036;2022-12-17T07:15:08;57.40;;;21.50;;
22298;SDS011;11317;51.072;17.036;2022-12-17T07:17:53;61.58;;;23.05;;
22298;SDS011;11317;51.072;17.036;2022-12-17T07:20:38;57.47;;;22.15;;
22298;SDS011;11317;51.072;17.036;2022-12-17T07:23:23;61.20;;;22.50;;
22298;SDS011;11317;51.072;17.036;2022-12-17T07:26:08;61.30;;;20.73;;
22298;SDS011;11317;51.072;17.036;2022-12-17T07:28:52;56.13;;;22.90;;
22298;SDS011;11317;51.072;17.036;2022-12-17T07:31:36;48.90;;;20.35;;
22298;SDS011;11317;51.072;17.036;2022-12-17T07:34:21;58.47;;;21.58;;
22298;SDS011;11317;51.072;17.036;2022-12-17T07:37:06;68.28;;;23.38;;
22298;SDS011;11317;51.072;17.036;2022-12-17T07:39:50;52.17;;;18.95;;
22298;SDS011;11317;51.072;17.036;2022-12-17T07:42:35;59.72;;;19.27;;
22298;SDS011;11317;51.072;17.036;2022-12-17T07:45:21;57.00;;;21.65;;
22298;SDS011;11317;51.072;17.036;2022-12-17T07:48:05;56.17;;;21.42;;
22298;SDS011;11317;51.072;17.036;2022-12-17T07:50:50;57.03;;;22.10;;
22298;SDS011;11317;51.072;17.036;2022-12-17T07:53:34;58.67;;;21.63;;
22298;SDS011;11317;51.072;17.036;2022-12-17T07:56:19;60.80;;;22.58;;
22298;SDS011;11317;51.072;17.036;2022-12-17T07:59:03;70.47;;;22.92;;
22298;SDS011;11317;51.072;17.036;2022-12-17T08:01:48;53.25;;;19.98;;
22298;SDS011;11317;51.072;17.036;2022-12-17T08:04:33;66.13;;;23.33;;
22298;SDS011;11317;51.072;17.036;2022-12-17T08:07:17;65.07;;;23.60;;
22298;SDS011;11317;51.072;17.036;2022-12-17T08:10:02;60.28;;;23.33;;
22298;SDS011;11317;51.072;17.036;2022-12-17T08:12:57;64.82;;;20.83;;
22298;SDS011;11317;51.072;17.036;2022-12-17T08:15:43;57.40;;;22.30;;
22298;SDS011;11317;51.072;17.036;2022-12-17T08:18:27;65.13;;;24.10;;
22298;SDS011;11317;51.072;17.036;2022-12-17T08:21:12;60.42;;;22.75;;
22298;SDS011;11317;51.072;17.036;2022-12-17T08:23:57;49.80;;;19.45;;
22298;SDS011;11317;51.072;17.036;2022-12-17T08:26:42;63.45;;;22.48;;
22298;SDS011;11317;51.072;17.036;2022-12-17T08:29:26;64.38;;;21.75;;
22298;SDS011;11317;51.072;17.036;2022-12-17T08:32:10;54.00;;;20.40;;
22298;SDS011;11317;51.072;17.036;2022-12-17T08:34:54;64.22;;;22.20;;
22298;SDS011;11317;51.072;17.036;2022-12-17T08:37:39;57.15;;;21.30;;
22298;SDS011;11317;51.072;17.036;2022-12-17T08:40:23;62.58;;;21.70;;
22298;SDS011;11317;51.072;17.036;2022-12-17T08:43:08;62.72;;;21.73;;
22298;SDS011;11317;51.072;17.036;2022-12-17T08:45:53;59.85;;;21.17;;
22298;SDS011;11317;51.072;17.036;2022-12-17T08:48:38;59.45;;;21.83;;
22298;SDS011;11317;51.072;17.036;2022-12-17T08:51:23;58.88;;;22.13;;
22298;SDS011;11317;51.072;17.036;2022-12-17T08:54:08;53.88;;;20.60;;
22298;SDS011;11317;51.072;17.036;2022-12-17T08:56:53;61.50;;;23.05;;
22298;SDS011;11317;51.072;17.036;2022-12-17T08:59:37;59.75;;;21.90;;
22298;SDS011;11317;51.072;17.036;2022-12-17T09:02:26;62.08;;;21.20;;
22298;SDS011;11317;51.072;17.036;2022-12-17T09:05:10;60.70;;;23.20;;
22298;SDS011;11317;51.072;17.036;2022-12-17T09:10:42;52.80;;;19.60;;
22298;SDS011;11317;51.072;17.036;2022-12-17T09:13:27;49.78;;;20.42;;
22298;SDS011;11317;51.072;17.036;2022-12-17T09:16:11;55.50;;;21.92;;
22298;SDS011;11317;51.072;17.036;2022-12-17T09:18:56;56.92;;;20.23;;
22298;SDS011;11317;51.072;17.036;2022-12-17T09:21:40;44.42;;;17.77;;
22298;SDS011;11317;51.072;17.036;2022-12-17T09:24:25;58.53;;;19.38;;
22298;SDS011;11317;51.072;17.036;2022-12-17T09:27:10;66.72;;;22.15;;
22298;SDS011;11317;51.072;17.036;2022-12-17T09:29:56;58.42;;;21.08;;
22298;SDS011;11317;51.072;17.036;2022-12-17T09:32:40;53.78;;;19.88;;
22298;SDS011;11317;51.072;17.036;2022-12-17T09:35:25;57.05;;;20.10;;
22298;SDS011;11317;51.072;17.036;2022-12-17T09:38:12;66.35;;;20.23;;
22298;SDS011;11317;51.072;17.036;2022-12-17T09:40:59;65.25;;;20.95;;
22298;SDS011;11317;51.072;17.036;2022-12-17T09:43:51;62.75;;;22.08;;
22298;SDS011;11317;51.072;17.036;2022-12-17T09:49:28;61.80;;;21.35;;
22298;SDS011;11317;51.072;17.036;2022-12-17T09:55:13;61.30;;;20.30;;
22298;SDS011;11317;51.072;17.036;2022-12-17T10:00:45;52.13;;;19.98;;
22298;SDS011;11317;51.072;17.036;2022-12-17T10:03:31;54.25;;;21.60;;
22298;SDS011;11317;51.072;17.036;2022-12-17T10:06:19;52.67;;;18.13;;
22298;SDS011;11317;51.072;17.036;2022-12-17T10:09:14;51.60;;;18.90;;
22298;SDS011;11317;51.072;17.036;2022-12-17T10:12:21;59.80;;;21.60;;
22298;SDS011;11317;51.072;17.036;2022-12-17T10:17:50;53.65;;;18.75;;
22298;SDS011;11317;51.072;17.036;2022-12-17T10:23:25;52.05;;;19.58;;
22298;SDS011;11317;51.072;17.036;2022-12-17T10:26:20;43.78;;;16.95;;
22298;SDS011;11317;51.072;17.036;2022-12-17T10:29:12;46.53;;;19.23;;
22298;SDS011;11317;51.072;17.036;2022-12-17T10:32:20;43.97;;;16.67;;
22298;SDS011;11317;51.072;17.036;2022-12-17T10:35:08;50.40;;;18.40;;
22298;SDS011;11317;51.072;17.036;2022-12-17T10:38:22;51.90;;;18.00;;
22298;SDS011;11317;51.072;17.036;2022-12-17T10:44:30;47.28;;;17.88;;
22298;SDS011;11317;51.072;17.036;2022-12-17T10:47:18;52.13;;;19.25;;
22298;SDS011;11317;51.072;17.036;2022-12-17T10:50:07;43.67;;;16.40;;
22298;SDS011;11317;51.072;17.036;2022-12-17T10:52:57;56.50;;;19.48;;
22298;SDS011;11317;51.072;17.036;2022-12-17T10:55:52;59.78;;;19.65;;
22298;SDS011;11317;51.072;17.036;2022-12-17T10:58:42;58.13;;;18.10;;
22298;SDS011;11317;51.072;17.036;2022-12-17T11:01:31;58.80;;;18.27;;
22298;SDS011;11317;51.072;17.036;2022-12-17T11:07:07;63.88;;;19.05;;
22298;SDS011;11317;51.072;17.036;2022-12-17T11:09:57;46.80;;;18.45;;
22298;SDS011;11317;51.072;17.036;2022-12-17T11:12:55;54.40;;;19.40;;
22298;SDS011;11317;51.072;17.036;2022-12-17T11:16:02;61.05;;;19.77;;
22298;SDS011;11317;51.072;17.036;2022-12-17T11:21:58;60.45;;;19.42;;
22298;SDS011;11317;51.072;17.036;2022-12-17T11:28:13;48.88;;;17.00;;
22298;SDS011;11317;51.072;17.036;2022-12-17T11:39:53;51.85;;;19.02;;
22298;SDS011;11317;51.072;17.036;2022-12-17T11:42:55;56.13;;;19.25;;
22298;SDS011;11317;51.072;17.036;2022-12-17T11:48:35;49.42;;;18.35;;
22298;SDS011;11317;51.072;17.036;2022-12-17T11:51:46;66.43;;;19.98;;
22298;SDS011;11317;51.072;17.036;2022-12-17T12:00:34;56.72;;;19.45;;
22298;SDS011;11317;51.072;17.036;2022-12-17T12:03:30;57.45;;;19.92;;
22298;SDS011;11317;51.072;17.036;2022-12-17T12:06:17;62.10;;;22.08;;
22298;SDS011;11317;51.072;17.036;2022-12-17T12:09:26;62.08;;;20.42;;
22298;SDS011;11317;51.072;17.036;2022-12-17T12:12:22;55.03;;;18.77;;
22298;SDS011;11317;51.072;17.036;2022-12-17T12:15:29;53.00;;;18.20;;
22298;SDS011;11317;51.072;17.036;2022-12-17T12:26:56;55.70;;;18.88;;
22298;SDS011;11317;51.072;17.036;2022-12-17T12:35:43;51.45;;;19.13;;
22298;SDS011;11317;51.072;17.036;2022-12-17T12:38:30;49.13;;;19.95;;
22298;SDS011;11317;51.072;17.036;2022-12-17T12:41:25;50.70;;;20.00;;
22298;SDS011;11317;51.072;17.036;2022-12-17T12:44:24;63.65;;;19.27;;
22298;SDS011;11317;51.072;17.036;2022-12-17T12:47:18;55.65;;;19.38;;
22298;SDS011;11317;51.072;17.036;2022-12-17T12:50:39;64.85;;;21.98;;
22298;SDS011;11317;51.072;17.036;2022-12-17T12:53:23;54.38;;;17.35;;
22298;SDS011;11317;51.072;17.036;2022-12-17T12:56:27;49.55;;;18.58;;
22298;SDS011;11317;51.072;17.036;2022-12-17T12:59:29;55.60;;;17.17;;
22298;SDS011;11317;51.072;17.036;2022-12-17T13:05:03;57.83;;;18.73;;
22298;SDS011;11317;51.072;17.036;2022-12-17T13:08:04;53.03;;;19.20;;
22298;SDS011;11317;51.072;17.036;2022-12-17T13:10:46;64.38;;;20.33;;
22298;SDS011;11317;51.072;17.036;2022-12-17T13:16:03;51.20;;;18.98;;
22298;SDS011;11317;51.072;17.036;2022-12-17T13:18:59;56.97;;;18.95;;
22298;SDS011;11317;51.072;17.036;2022-12-17T13:21:26;55.58;;;20.02;;
22298;SDS011;11317;51.072;17.036;2022-12-17T13:23:53;49.67;;;17.30;;
22298;SDS011;11317;51.072;17.036;2022-12-17T13:26:23;58.45;;;21.58;;
22298;SDS011;11317;51.072;17.036;2022-12-17T13:29:26;58.63;;;20.00;;
22298;SDS011;11317;51.072;17.036;2022-12-17T13:32:14;51.92;;;18.05;;
22298;SDS011;11317;51.072;17.036;2022-12-17T13:34:59;52.55;;;18.02;;
22298;SDS011;11317;51.072;17.036;2022-12-17T13:42:51;55.35;;;19.02;;
22298;SDS011;11317;51.072;17.036;2022-12-17T13:45:18;55.80;;;19.58;;
22298;SDS011;11317;51.072;17.036;2022-12-17T13:47:54;47.72;;;17.77;;
22298;SDS011;11317;51.072;17.036;2022-12-17T13:50:25;54.05;;;19.70;;
22298;SDS011;11317;51.072;17.036;2022-12-17T13:52:53;55.75;;;17.13;;
22298;SDS011;11317;51.072;17.036;2022-12-17T13:55:20;50.10;;;17.40;;
22298;SDS011;11317;51.072;17.036;2022-12-17T13:57:48;49.40;;;17.23;;
22298;SDS011;11317;51.072;17.036;2022-12-17T14:00:19;50.40;;;15.48;;
22298;SDS011;11317;51.072;17.036;2022-12-17T14:02:53;58.65;;;17.58;;
22298;SDS011;11317;51.072;17.036;2022-12-17T14:05:21;48.42;;;17.48;;
22298;SDS011;11317;51.072;17.036;2022-12-17T14:07:50;47.08;;;16.90;;
22298;SDS011;11317;51.072;17.036;2022-12-17T14:10:17;56.72;;;16.98;;
22298;SDS011;11317;51.072;17.036;2022-12-17T14:12:44;55.58;;;19.08;;
22298;SDS011;11317;51.072;17.036;2022-12-17T14:15:23;42.97;;;16.02;;
22298;SDS011;11317;51.072;17.036;2022-12-17T14:17:51;57.78;;;20.63;;
22298;SDS011;11317;51.072;17.036;2022-12-17T14:20:19;42.58;;;16.70;;
22298;SDS011;11317;51.072;17.036;2022-12-17T14:22:51;43.90;;;16.20;;
22298;SDS011;11317;51.072;17.036;2022-12-17T14:25:39;45.53;;;16.70;;
22298;SDS011;11317;51.072;17.036;2022-12-17T14:28:21;47.13;;;16.73;;
22298;SDS011;11317;51.072;17.036;2022-12-17T14:30:49;48.35;;;16.55;;
22298;SDS011;11317;51.072;17.036;2022-12-17T14:33:32;51.45;;;16.85;;
22298;SDS011;11317;51.072;17.036;2022-12-17T14:35:59;53.53;;;17.63;;
22298;SDS011;11317;51.072;17.036;2022-12-17T14:38:30;49.95;;;17.15;;
22298;SDS011;11317;51.072;17.036;2022-12-17T14:41:10;43.65;;;17.75;;
22298;SDS011;11317;51.072;17.036;2022-12-17T14:43:59;50.00;;;18.45;;
22298;SDS011;11317;51.072;17.036;2022-12-17T14:46:27;53.75;;;17.23;;
22298;SDS011;11317;51.072;17.036;2022-12-17T14:48:57;42.70;;;15.63;;
22298;SDS011;11317;51.072;17.036;2022-12-17T14:51:38;55.20;;;19.20;;
22298;SDS011;11317;51.072;17.036;2022-12-17T14:54:06;50.20;;;16.25;;
22298;SDS011;11317;51.072;17.036;2022-12-17T14:56:37;42.03;;;16.35;;
22298;SDS011;11317;51.072;17.036;2022-12-17T14:59:04;53.38;;;17.13;;
22298;SDS011;11317;51.072;17.036;2022-12-17T15:01:30;46.85;;;16.23;;
22298;SDS011;11317;51.072;17.036;2022-12-17T15:03:56;43.55;;;16.85;;
22298;SDS011;11317;51.072;17.036;2022-12-17T15:06:23;50.20;;;14.45;;
22298;SDS011;11317;51.072;17.036;2022-12-17T15:08:50;46.72;;;15.77;;
22298;SDS011;11317;51.072;17.036;2022-12-17T15:11:18;50.63;;;15.10;;
22298;SDS011;11317;51.072;17.036;2022-12-17T15:13:46;39.05;;;13.88;;
22298;SDS011;11317;51.072;17.036;2022-12-17T15:16:12;40.22;;;14.02;;
22298;SDS011;11317;51.072;17.036;2022-12-17T15:18:38;48.20;;;16.50;;
22298;SDS011;11317;51.072;17.036;2022-12-17T15:21:04;41.08;;;13.93;;
22298;SDS011;11317;51.072;17.036;2022-12-17T15:23:30;35.33;;;14.55;;
22298;SDS011;11317;51.072;17.036;2022-12-17T15:25:57;45.20;;;13.85;;
22298;SDS011;11317;51.072;17.036;2022-12-17T15:28:23;48.80;;;15.40;;
22298;SDS011;11317;51.072;17.036;2022-12-17T15:30:50;48.03;;;15.02;;
22298;SDS011;11317;51.072;17.036;2022-12-17T15:33:16;43.60;;;15.25;;
22298;SDS011;11317;51.072;17.036;2022-12-17T15:35:42;32.58;;;13.02;;
22298;SDS011;11317;51.072;17.036;2022-12-17T15:38:08;35.65;;;13.45;;
22298;SDS011;11317;51.072;17.036;2022-12-17T15:40:35;41.47;;;14.75;;
22298;SDS011;11317;51.072;17.036;2022-12-17T15:43:02;46.47;;;16.05;;
22298;SDS011;11317;51.072;17.036;2022-12-17T15:45:41;48.63;;;16.48;;
22298;SDS011;11317;51.072;17.036;2022-12-17T15:48:09;40.42;;;15.25;;
22298;SDS011;11317;51.072;17.036;2022-12-17T15:50:35;38.53;;;13.10;;
22298;SDS011;11317;51.072;17.036;2022-12-17T15:53:01;44.75;;;13.98;;
22298;SDS011;11317;51.072;17.036;2022-12-17T15:55:27;40.50;;;14.13;;
22298;SDS011;11317;51.072;17.036;2022-12-17T15:57:53;43.10;;;14.18;;
22298;SDS011;11317;51.072;17.036;2022-12-17T16:00:20;45.20;;;15.40;;
22298;SDS011;11317;51.072;17.036;2022-12-17T16:02:46;41.38;;;15.07;;
22298;SDS011;11317;51.072;17.036;2022-12-17T16:05:13;36.17;;;14.50;;
22298;SDS011;11317;51.072;17.036;2022-12-17T16:07:38;30.67;;;13.90;;
22298;SDS011;11317;51.072;17.036;2022-12-17T16:10:07;40.75;;;13.07;;
22298;SDS011;11317;51.072;17.036;2022-12-17T16:12:34;44.70;;;13.25;;
22298;SDS011;11317;51.072;17.036;2022-12-17T16:15:00;38.55;;;13.52;;
22298;SDS011;11317;51.072;17.036;2022-12-17T16:17:26;39.72;;;12.65;;
22298;SDS011;11317;51.072;17.036;2022-12-17T16:19:53;38.42;;;13.20;;
22298;SDS011;11317;51.072;17.036;2022-12-17T16:22:19;28.33;;;11.15;;
22298;SDS011;11317;51.072;17.036;2022-12-17T16:24:46;28.38;;;10.90;;
22298;SDS011;11317;51.072;17.036;2022-12-17T16:27:12;43.80;;;12.20;;
22298;SDS011;11317;51.072;17.036;2022-12-17T16:29:38;29.75;;;10.13;;
22298;SDS011;11317;51.072;17.036;2022-12-17T16:32:04;34.28;;;10.43;;
22298;SDS011;11317;51.072;17.036;2022-12-17T16:34:30;39.30;;;11.27;;
22298;SDS011;11317;51.072;17.036;2022-12-17T16:36:56;23.40;;;9.57;;
22298;SDS011;11317;51.072;17.036;2022-12-17T16:39:23;30.42;;;11.20;;
22298;SDS011;11317;51.072;17.036;2022-12-17T16:41:49;28.70;;;9.75;;
22298;SDS011;11317;51.072;17.036;2022-12-17T16:44:15;26.13;;;9.00;;
22298;SDS011;11317;51.072;17.036;2022-12-17T16:46:43;31.13;;;9.98;;
22298;SDS011;11317;51.072;17.036;2022-12-17T16:49:14;22.83;;;7.95;;
22298;SDS011;11317;51.072;17.036;2022-12-17T16:51:43;29.52;;;9.50;;
22298;SDS011;11317;51.072;17.036;2022-12-17T16:54:13;25.65;;;9.20;;
22298;SDS011;11317;51.072;17.036;2022-12-17T16:56:41;28.25;;;10.32;;
22298;SDS011;11317;51.072;17.036;2022-12-17T16:59:08;34.03;;;11.80;;
22298;SDS011;11317;51.072;17.036;2022-12-17T17:01:35;30.00;;;10.85;;
22298;SDS011;11317;51.072;17.036;2022-12-17T17:04:03;23.08;;;8.95;;
22298;SDS011;11317;51.072;17.036;2022-12-17T17:06:30;37.17;;;11.90;;
22298;SDS011;11317;51.072;17.036;2022-12-17T17:08:56;44.08;;;12.40;;
22298;SDS011;11317;51.072;17.036;2022-12-17T17:11:23;25.77;;;9.75;;
22298;SDS011;11317;51.072;17.036;2022-12-17T17:13:51;28.83;;;11.07;;
22298;SDS011;11317;51.072;17.036;2022-12-17T17:16:19;29.88;;;10.38;;
22298;SDS011;11317;51.072;17.036;2022-12-17T17:18:47;27.92;;;10.20;;
22298;SDS011;11317;51.072;17.036;2022-12-17T17:23:51;20.77;;;10.02;;
22298;SDS011;11317;51.072;17.036;2022-12-17T17:26:27;29.83;;;10.50;;
22298;SDS011;11317;51.072;17.036;2022-12-17T17:28:55;29.75;;;9.77;;